Time;durP1;ratioP1;P1;durP2;ratioP2;P2;SDS_P1;SDS_P2;PMS_P1;PMS_P2;Temp;Humidity;BMP_temperature;BMP_pressure;BME280_temperature;BME280_humidity;BME280_pressure;Samples;Min_cycle;Max_cycle;Signal;HPM_P1;HPM_P2
2022/10/12 00:01:25;;;;;;;17.70;15.77;;;;;;;;;;4440735;32;20246;-87
2022/10/12 00:03:52;;;;;;;18.43;15.43;;;;;;;;;;4440458;32;20220;-88
2022/10/12 00:06:21;;;;;;;25.10;17.50;;;;;;;;;;4438959;32;20236;-88
2022/10/12 00:08:49;;;;;;;24.90;16.83;;;;;;;;;;4439232;32;20217;-88
2022/10/12 00:11:19;;;;;;;19.65;17.20;;;;;;;;;;4440040;32;20341;-87
2022/10/12 00:13:46;;;;;;;22.48;18.05;;;;;;;;;;4440396;32;20288;-87
2022/10/12 00:16:14;;;;;;;24.40;16.67;;;;;;;;;;4440426;32;20246;-86
2022/10/12 00:18:41;;;;;;;21.70;17.50;;;;;;;;;;4440325;32;20221;-87
2022/10/12 00:21:10;;;;;;;21.60;16.37;;;;;;;;;;4439970;32;20266;-87
2022/10/12 00:23:38;;;;;;;21.50;16.67;;;;;;;;;;4440158;32;20541;-86
2022/10/12 00:26:08;;;;;;;21.00;16.40;;;;;;;;;;4440935;32;20228;-87
2022/10/12 00:28:37;;;;;;;18.73;16.27;;;;;;;;;;4440655;32;20246;-87
2022/10/12 00:31:07;;;;;;;20.33;16.63;;;;;;;;;;4440383;32;20237;-87
2022/10/12 00:33:36;;;;;;;19.20;16.70;;;;;;;;;;4441282;32;20629;-86
2022/10/12 00:36:11;;;;;;;22.83;16.50;;;;;;;;;;4440261;32;20255;-86
2022/10/12 00:38:38;;;;;;;24.47;15.83;;;;;;;;;;4440503;32;20212;-85
2022/10/12 00:41:05;;;;;;;18.55;16.30;;;;;;;;;;4440073;32;20229;-86
2022/10/12 00:43:34;;;;;;;23.20;17.13;;;;;;;;;;4440099;32;20219;-86
2022/10/12 00:46:05;;;;;;;28.20;17.47;;;;;;;;;;4440607;32;20232;-87
2022/10/12 00:48:32;;;;;;;21.37;16.27;;;;;;;;;;4440564;32;20239;-88
2022/10/12 00:51:02;;;;;;;20.20;16.30;;;;;;;;;;4440041;32;20232;-86
2022/10/12 00:53:33;;;;;;;18.47;15.77;;;;;;;;;;4440509;32;20251;-87
2022/10/12 00:56:03;;;;;;;17.50;14.50;;;;;;;;;;4439752;32;20285;-87
2022/10/12 00:58:31;;;;;;;17.97;15.60;;;;;;;;;;4449491;32;20209;-83
2022/10/12 01:01:00;;;;;;;19.45;16.27;;;;;;;;;;4445546;32;20340;-85
2022/10/12 01:03:28;;;;;;;18.77;16.05;;;;;;;;;;4446796;32;20311;-86
2022/10/12 01:05:56;;;;;;;20.40;16.10;;;;;;;;;;4444656;32;20233;-87
2022/10/12 01:08:22;;;;;;;26.77;14.80;;;;;;;;;;4443242;32;20209;-87
2022/10/12 01:10:49;;;;;;;17.93;14.27;;;;;;;;;;4438830;32;20228;-88
2022/10/12 01:13:17;;;;;;;19.83;14.90;;;;;;;;;;4439373;32;20235;-87
2022/10/12 01:15:53;;;;;;;25.70;23.20;;;;;;;;;;4438915;32;20259;-86
2022/10/12 01:18:27;;;;;;;26.53;23.37;;;;;;;;;;4439291;32;20235;-87
2022/10/12 01:21:17;;;;;;;26.60;22.47;;;;;;;;;;4438809;32;20221;-87
2022/10/12 01:24:16;;;;;;;23.87;20.07;;;;;;;;;;4439431;32;20281;-87
2022/10/12 01:27:24;;;;;;;22.97;17.53;;;;;;;;;;4439475;32;20268;-87
2022/10/12 01:30:21;;;;;;;23.70;19.07;;;;;;;;;;4439785;32;20285;-86
2022/10/12 01:33:14;;;;;;;19.40;17.37;;;;;;;;;;4442725;32;20272;-84
2022/10/12 01:35:49;;;;;;;19.17;14.63;;;;;;;;;;4444394;32;20273;-87
2022/10/12 01:38:27;;;;;;;17.37;15.50;;;;;;;;;;4443596;32;20220;-85
2022/10/12 01:40:59;;;;;;;19.03;14.83;;;;;;;;;;4440493;32;20220;-86
2022/10/12 01:43:34;;;;;;;15.47;13.27;;;;;;;;;;4443417;32;20265;-86
2022/10/12 01:46:08;;;;;;;21.63;13.43;;;;;;;;;;4442247;32;20246;-84
2022/10/12 01:48:35;;;;;;;18.63;12.37;;;;;;;;;;4441155;32;20223;-87
2022/10/12 01:51:02;;;;;;;15.32;11.07;;;;;;;;;;4445180;32;20229;-86
2022/10/12 01:53:40;;;;;;;12.07;10.83;;;;;;;;;;4444288;32;20213;-86
2022/10/12 01:56:11;;;;;;;17.77;12.00;;;;;;;;;;4440286;32;20228;-87
2022/10/12 01:58:51;;;;;;;16.30;11.13;;;;;;;;;;4444601;32;20291;-84
2022/10/12 02:01:27;;;;;;;12.33;10.87;;;;;;;;;;4444147;32;20299;-84
2022/10/12 02:04:00;;;;;;;13.53;10.47;;;;;;;;;;4445684;32;20204;-86
2022/10/12 02:06:32;;;;;;;12.73;11.40;;;;;;;;;;4438112;32;20685;-87
2022/10/12 02:09:05;;;;;;;15.43;11.67;;;;;;;;;;4439033;32;20610;-87
2022/10/12 02:11:37;;;;;;;14.03;11.43;;;;;;;;;;4439283;32;20683;-87
2022/10/12 02:14:09;;;;;;;13.97;11.23;;;;;;;;;;4443231;32;20213;-87
2022/10/12 02:16:42;;;;;;;15.37;11.57;;;;;;;;;;4446333;32;20220;-86
2022/10/12 02:19:12;;;;;;;17.17;11.10;;;;;;;;;;4443221;32;20276;-86
2022/10/12 02:21:40;;;;;;;14.67;11.40;;;;;;;;;;4443335;32;20224;-86
2022/10/12 02:24:09;;;;;;;19.13;11.87;;;;;;;;;;4445663;32;20218;-85
2022/10/12 02:26:40;;;;;;;14.53;11.77;;;;;;;;;;4440634;32;20209;-87
2022/10/12 02:29:13;;;;;;;13.95;12.40;;;;;;;;;;4441994;32;20252;-85
2022/10/12 02:31:52;;;;;;;16.37;13.13;;;;;;;;;;4442826;32;20625;-85
2022/10/12 02:34:23;;;;;;;19.67;14.67;;;;;;;;;;4442031;32;20283;-87
2022/10/12 02:36:53;;;;;;;17.97;13.20;;;;;;;;;;4444400;32;20260;-87
2022/10/12 02:39:25;;;;;;;18.60;14.33;;;;;;;;;;4441604;32;20217;-87
2022/10/12 02:41:57;;;;;;;17.90;13.90;;;;;;;;;;4441648;32;20269;-87
2022/10/12 02:44:27;;;;;;;16.67;14.87;;;;;;;;;;4443265;32;20630;-87
2022/10/12 02:46:58;;;;;;;17.43;15.53;;;;;;;;;;4444834;32;20213;-85
2022/10/12 02:49:27;;;;;;;18.93;15.20;;;;;;;;;;4440662;32;20230;-87
2022/10/12 02:51:55;;;;;;;19.90;14.47;;;;;;;;;;4440434;32;20582;-87
2022/10/12 02:54:22;;;;;;;24.10;14.30;;;;;;;;;;4443672;32;20213;-86
2022/10/12 02:56:49;;;;;;;17.57;14.83;;;;;;;;;;4445130;32;20311;-87
2022/10/12 02:59:17;;;;;;;21.87;15.03;;;;;;;;;;4443032;32;20213;-84
2022/10/12 03:01:44;;;;;;;17.47;14.20;;;;;;;;;;4448804;32;20216;-83
2022/10/12 03:04:12;;;;;;;20.63;14.67;;;;;;;;;;4447311;32;20312;-86
2022/10/12 03:06:41;;;;;;;16.58;14.05;;;;;;;;;;4448101;32;20717;-83
2022/10/12 03:09:08;;;;;;;22.10;14.80;;;;;;;;;;4447669;32;20212;-84
2022/10/12 03:11:36;;;;;;;21.17;15.32;;;;;;;;;;4449583;32;20204;-85
2022/10/12 03:14:03;;;;;;;20.40;14.70;;;;;;;;;;4444416;32;20216;-86
2022/10/12 03:16:30;;;;;;;17.50;13.60;;;;;;;;;;4445407;32;20296;-87
2022/10/12 03:18:57;;;;;;;17.97;15.07;;;;;;;;;;4446896;32;20234;-87
2022/10/12 03:21:25;;;;;;;18.63;14.93;;;;;;;;;;4445494;32;20232;-86
2022/10/12 03:23:52;;;;;;;13.60;12.23;;;;;;;;;;4445981;32;20225;-87
2022/10/12 03:26:19;;;;;;;16.53;14.83;;;;;;;;;;4448058;32;20248;-87
2022/10/12 03:28:46;;;;;;;22.90;15.20;;;;;;;;;;4444811;32;20217;-86
2022/10/12 03:31:12;;;;;;;15.32;13.75;;;;;;;;;;4442147;32;20239;-88
2022/10/12 03:33:39;;;;;;;20.30;13.95;;;;;;;;;;4442606;32;20549;-87
2022/10/12 03:36:07;;;;;;;18.97;14.20;;;;;;;;;;4442539;32;20243;-87
2022/10/12 03:38:35;;;;;;;21.70;14.53;;;;;;;;;;4440603;32;20220;-87
2022/10/12 03:41:02;;;;;;;20.97;13.87;;;;;;;;;;4440151;32;20245;-88
2022/10/12 03:43:29;;;;;;;21.37;14.93;;;;;;;;;;4441066;32;20224;-88
2022/10/12 03:45:56;;;;;;;20.97;15.83;;;;;;;;;;4441182;32;20308;-88
2022/10/12 03:48:23;;;;;;;22.07;14.43;;;;;;;;;;4440912;32;20273;-87
2022/10/12 03:50:50;;;;;;;19.07;15.47;;;;;;;;;;4440289;32;20327;-87
2022/10/12 03:53:19;;;;;;;16.63;14.63;;;;;;;;;;4440626;32;20217;-87
2022/10/12 03:55:47;;;;;;;23.70;14.97;;;;;;;;;;4440478;32;20225;-86
2022/10/12 03:58:14;;;;;;;22.73;15.30;;;;;;;;;;4440538;32;20223;-88
2022/10/12 04:00:41;;;;;;;21.97;15.77;;;;;;;;;;4442408;32;20225;-86
2022/10/12 04:03:11;;;;;;;19.77;15.93;;;;;;;;;;4443611;32;20234;-84
2022/10/12 04:05:38;;;;;;;18.37;16.43;;;;;;;;;;4439760;32;20252;-85
2022/10/12 04:08:05;;;;;;;25.90;17.63;;;;;;;;;;4431594;32;20221;-84
2022/10/12 04:10:32;;;;;;;21.13;18.53;;;;;;;;;;4426726;32;20229;-87
2022/10/12 04:13:00;;;;;;;25.03;17.53;;;;;;;;;;4424370;32;20562;-86
2022/10/12 04:15:30;;;;;;;24.55;18.52;;;;;;;;;;4425068;32;20225;-88
2022/10/12 04:17:57;;;;;;;22.05;19.40;;;;;;;;;;4424336;32;20356;-87
2022/10/12 04:20:23;;;;;;;20.77;18.57;;;;;;;;;;4427595;32;20555;-85
2022/10/12 04:22:50;;;;;;;30.50;19.13;;;;;;;;;;4432243;32;20293;-83
2022/10/12 04:25:17;;;;;;;22.40;19.37;;;;;;;;;;4431188;32;20308;-85
2022/10/12 04:27:44;;;;;;;26.47;19.73;;;;;;;;;;4430526;32;20287;-83
2022/10/12 04:30:13;;;;;;;25.73;18.23;;;;;;;;;;4430070;32;20304;-86
2022/10/12 04:32:40;;;;;;;18.93;16.50;;;;;;;;;;4430408;32;20216;-87
2022/10/12 04:35:07;;;;;;;21.80;18.67;;;;;;;;;;4430043;32;20581;-87
2022/10/12 04:37:34;;;;;;;27.40;17.13;;;;;;;;;;4432461;32;20250;-86
2022/10/12 04:40:02;;;;;;;22.80;17.55;;;;;;;;;;4430098;32;20348;-87
2022/10/12 04:42:28;;;;;;;25.77;18.00;;;;;;;;;;4430790;32;20227;-85
2022/10/12 04:44:55;;;;;;;19.07;15.90;;;;;;;;;;4430445;32;20240;-87
2022/10/12 04:47:24;;;;;;;17.90;14.27;;;;;;;;;;4429420;32;20250;-86
2022/10/12 04:49:50;;;;;;;20.53;14.47;;;;;;;;;;4430874;32;20292;-86
2022/10/12 04:52:17;;;;;;;28.97;14.20;;;;;;;;;;4428121;32;20618;-86
2022/10/12 04:54:44;;;;;;;23.33;14.13;;;;;;;;;;4426175;32;20237;-85
2022/10/12 04:57:11;;;;;;;25.97;14.33;;;;;;;;;;4429224;32;20288;-83
2022/10/12 04:59:37;;;;;;;17.10;13.00;;;;;;;;;;4427878;32;20630;-87
2022/10/12 05:02:04;;;;;;;18.63;15.70;;;;;;;;;;4423426;32;20209;-88
2022/10/12 05:04:33;;;;;;;19.23;13.93;;;;;;;;;;4423110;32;20229;-86
2022/10/12 05:07:00;;;;;;;21.40;16.07;;;;;;;;;;4437480;32;20240;-87
2022/10/12 05:09:27;;;;;;;28.50;16.53;;;;;;;;;;4438426;32;20204;-87
2022/10/12 05:11:53;;;;;;;20.37;15.17;;;;;;;;;;4438636;32;20233;-88
2022/10/12 05:14:20;;;;;;;21.73;15.37;;;;;;;;;;4438474;32;20301;-85
2022/10/12 05:16:47;;;;;;;21.20;15.13;;;;;;;;;;4438595;32;20217;-87
2022/10/12 05:19:14;;;;;;;18.03;13.77;;;;;;;;;;4438270;32;20265;-87
2022/10/12 05:21:42;;;;;;;19.60;14.87;;;;;;;;;;4438327;32;20283;-88
2022/10/12 05:24:10;;;;;;;26.17;14.53;;;;;;;;;;4438293;32;20646;-88
2022/10/12 05:26:37;;;;;;;23.17;14.57;;;;;;;;;;4439362;32;20228;-87
2022/10/12 05:29:03;;;;;;;22.00;14.53;;;;;;;;;;4438218;32;20575;-87
2022/10/12 05:31:31;;;;;;;20.80;15.30;;;;;;;;;;4438100;32;20854;-83
2022/10/12 05:33:57;;;;;;;23.27;14.47;;;;;;;;;;4448821;32;20690;-85
2022/10/12 05:36:24;;;;;;;27.43;15.13;;;;;;;;;;4445500;32;20289;-87
2022/10/12 05:38:52;;;;;;;18.87;15.87;;;;;;;;;;4445769;32;20302;-85
2022/10/12 05:41:19;;;;;;;17.03;15.17;;;;;;;;;;4443648;32;20306;-86
2022/10/12 05:43:46;;;;;;;25.70;16.53;;;;;;;;;;4444239;32;20209;-87
2022/10/12 05:46:13;;;;;;;21.30;15.53;;;;;;;;;;4443582;32;20228;-87
2022/10/12 05:48:40;;;;;;;19.40;16.27;;;;;;;;;;4443711;32;20208;-87
2022/10/12 05:51:06;;;;;;;26.93;18.57;;;;;;;;;;4441361;32;20246;-87
2022/10/12 05:53:34;;;;;;;24.77;19.83;;;;;;;;;;4441458;32;20659;-87
2022/10/12 05:56:02;;;;;;;24.50;19.57;;;;;;;;;;4437679;32;20580;-87
2022/10/12 05:58:30;;;;;;;25.33;20.73;;;;;;;;;;4438475;32;20209;-87
2022/10/12 06:01:05;;;;;;;31.20;21.00;;;;;;;;;;4438799;32;20702;-87
2022/10/12 06:03:32;;;;;;;22.47;19.10;;;;;;;;;;4439432;32;20331;-87
2022/10/12 06:06:02;;;;;;;23.00;20.53;;;;;;;;;;4438711;32;20239;-88
2022/10/12 06:08:30;;;;;;;25.40;18.97;;;;;;;;;;4438578;32;20579;-87
2022/10/12 06:10:57;;;;;;;28.33;20.27;;;;;;;;;;4438453;32;20300;-88
2022/10/12 06:13:26;;;;;;;25.37;19.17;;;;;;;;;;4438291;32;20296;-88
2022/10/12 06:15:52;;;;;;;29.33;20.27;;;;;;;;;;4437363;32;20300;-87
2022/10/12 06:18:19;;;;;;;25.10;20.23;;;;;;;;;;4438305;32;20694;-87
2022/10/12 06:20:48;;;;;;;26.10;21.05;;;;;;;;;;4437438;32;20232;-86
2022/10/12 06:23:20;;;;;;;24.80;20.03;;;;;;;;;;4438960;32;20206;-88
2022/10/12 06:25:48;;;;;;;33.53;21.60;;;;;;;;;;4438539;32;20568;-88
2022/10/12 06:28:16;;;;;;;32.80;22.57;;;;;;;;;;4439914;32;20295;-88
2022/10/12 06:30:44;;;;;;;36.90;23.30;;;;;;;;;;4439087;32;20236;-87
2022/10/12 06:33:11;;;;;;;34.15;23.38;;;;;;;;;;4439621;32;20636;-88
2022/10/12 06:35:38;;;;;;;27.37;22.23;;;;;;;;;;4438093;32;20240;-87
2022/10/12 06:38:05;;;;;;;33.87;23.43;;;;;;;;;;4438400;32;20208;-88
2022/10/12 06:40:35;;;;;;;30.20;24.12;;;;;;;;;;4438305;32;20303;-87
2022/10/12 06:43:13;;;;;;;41.37;24.57;;;;;;;;;;4440053;32;20271;-87
2022/10/12 06:45:40;;;;;;;34.00;23.47;;;;;;;;;;4441461;32;20562;-87
2022/10/12 06:48:08;;;;;;;35.57;25.07;;;;;;;;;;4441312;32;20220;-89
2022/10/12 06:50:36;;;;;;;25.60;21.83;;;;;;;;;;4440481;32;20220;-88
2022/10/12 06:53:03;;;;;;;31.60;23.63;;;;;;;;;;4442317;32;20239;-88
2022/10/12 06:55:29;;;;;;;29.40;23.23;;;;;;;;;;4441563;32;20638;-88
2022/10/12 06:57:56;;;;;;;34.37;24.30;;;;;;;;;;4441860;32;20213;-87
2022/10/12 07:00:23;;;;;;;34.42;24.15;;;;;;;;;;4442397;32;20293;-86
2022/10/12 07:02:50;;;;;;;27.87;23.83;;;;;;;;;;4444455;32;20221;-88
2022/10/12 07:05:19;;;;;;;33.60;23.07;;;;;;;;;;4444096;32;20669;-88
2022/10/12 07:07:46;;;;;;;29.17;25.50;;;;;;;;;;4440740;32;20200;-86
2022/10/12 07:10:13;;;;;;;42.43;25.23;;;;;;;;;;4440849;32;20534;-88
2022/10/12 07:12:40;;;;;;;29.80;25.20;;;;;;;;;;4440364;32;20231;-89
2022/10/12 07:15:07;;;;;;;50.10;22.63;;;;;;;;;;4439921;32;20243;-88
2022/10/12 07:17:34;;;;;;;31.17;21.37;;;;;;;;;;4433876;27;20249;-89
2022/10/12 07:20:01;;;;;;;26.33;22.35;;;;;;;;;;4426746;32;20244;-89
2022/10/12 07:22:30;;;;;;;34.45;21.80;;;;;;;;;;4428347;32;20317;-88
2022/10/12 07:25:02;;;;;;;36.17;21.17;;;;;;;;;;4428861;32;20630;-92
2022/10/12 07:27:28;;;;;;;31.33;21.50;;;;;;;;;;4427649;32;20284;-89
2022/10/12 07:29:56;;;;;;;26.57;20.60;;;;;;;;;;4427191;32;20221;-89
2022/10/12 07:32:22;;;;;;;32.47;20.60;;;;;;;;;;4425227;32;20248;-89
2022/10/12 07:34:50;;;;;;;31.00;21.52;;;;;;;;;;4428019;32;20217;-89
2022/10/12 07:37:16;;;;;;;29.08;19.85;;;;;;;;;;4431263;32;20264;-88
2022/10/12 07:39:45;;;;;;;26.37;20.05;;;;;;;;;;4429773;32;20282;-87
2022/10/12 07:42:12;;;;;;;32.22;21.42;;;;;;;;;;4429484;32;20277;-90
2022/10/12 07:44:39;;;;;;;24.70;20.83;;;;;;;;;;4431731;32;20205;-89
2022/10/12 07:47:06;;;;;;;29.02;21.98;;;;;;;;;;4425208;32;20668;-89
2022/10/12 07:49:33;;;;;;;30.37;21.13;;;;;;;;;;4424968;32;20263;-90
2022/10/12 07:51:59;;;;;;;28.40;22.20;;;;;;;;;;4424416;32;20217;-90
2022/10/12 07:54:26;;;;;;;37.47;21.43;;;;;;;;;;4423627;32;20233;-90
2022/10/12 07:56:54;;;;;;;29.20;22.03;;;;;;;;;;4424452;32;20213;-89
2022/10/12 07:59:22;;;;;;;31.85;22.50;;;;;;;;;;4425173;32;20245;-90
2022/10/12 08:01:48;;;;;;;29.70;22.90;;;;;;;;;;4425151;32;20262;-90
2022/10/12 08:04:15;;;;;;;33.38;24.10;;;;;;;;;;4425052;32;20292;-89
2022/10/12 08:06:44;;;;;;;25.70;22.67;;;;;;;;;;4429148;32;20224;-87
2022/10/12 08:09:11;;;;;;;25.87;21.93;;;;;;;;;;4424075;32;20221;-89
2022/10/12 08:11:43;;;;;;;29.13;23.00;;;;;;;;;;4425338;32;20253;-88
2022/10/12 08:14:16;;;;;;;37.50;23.08;;;;;;;;;;4422625;32;20357;-88
2022/10/12 08:16:44;;;;;;;28.38;23.15;;;;;;;;;;4424741;32;20235;-89
2022/10/12 08:19:13;;;;;;;28.73;22.87;;;;;;;;;;4424554;32;20231;-89
2022/10/12 08:21:41;;;;;;;33.87;23.37;;;;;;;;;;4423916;32;20278;-88
2022/10/12 08:24:08;;;;;;;35.57;23.10;;;;;;;;;;4425991;32;20243;-88
2022/10/12 08:26:35;;;;;;;27.50;23.20;;;;;;;;;;4425464;32;20243;-89
2022/10/12 08:29:02;;;;;;;26.27;22.07;;;;;;;;;;4423831;32;20604;-88
2022/10/12 08:31:33;;;;;;;33.53;23.02;;;;;;;;;;4426625;32;20221;-89
2022/10/12 08:34:00;;;;;;;32.53;22.93;;;;;;;;;;4427358;32;20236;-87
2022/10/12 08:36:32;;;;;;;27.27;23.63;;;;;;;;;;4428492;32;20284;-88
2022/10/12 08:38:59;;;;;;;35.07;22.53;;;;;;;;;;4432308;32;20572;-85
2022/10/12 08:41:39;;;;;;;35.10;23.58;;;;;;;;;;4434800;32;20297;-85
2022/10/12 08:44:42;;;;;;;26.50;22.05;;;;;;;;;;4435033;32;20645;-88
2022/10/12 08:47:15;;;;;;;26.42;21.23;;;;;;;;;;4419672;32;20266;-88
2022/10/12 08:49:44;;;;;;;27.45;21.98;;;;;;;;;;4427451;32;20216;-89
2022/10/12 08:52:24;;;;;;;30.23;21.83;;;;;;;;;;4426244;32;20217;-89
2022/10/12 08:54:50;;;;;;;25.85;21.60;;;;;;;;;;4426108;32;20213;-90
2022/10/12 08:57:19;;;;;;;19.25;16.37;;;;;;;;;;4423986;32;20221;-87
2022/10/12 08:59:46;;;;;;;28.38;20.55;;;;;;;;;;4425246;32;20210;-88
2022/10/12 09:02:39;;;;;;;24.25;20.40;;;;;;;;;;4425336;32;20213;-88
2022/10/12 09:05:09;;;;;;;29.97;21.50;;;;;;;;;;4424069;32;20227;-89
2022/10/12 09:07:40;;;;;;;31.07;24.00;;;;;;;;;;4422994;32;20225;-88
2022/10/12 09:10:19;;;;;;;27.77;22.67;;;;;;;;;;4423911;32;20222;-88
2022/10/12 09:12:55;;;;;;;27.53;23.30;;;;;;;;;;4423134;32;20247;-90
2022/10/12 09:15:26;;;;;;;31.00;23.17;;;;;;;;;;4424240;32;20205;-89
2022/10/12 09:20:44;;;;;;;30.27;22.20;;;;;;;;;;4422925;32;20245;-88
2022/10/12 09:23:23;;;;;;;30.27;22.30;;;;;;;;;;4423692;32;20248;-89
2022/10/12 09:25:50;;;;;;;27.50;23.52;;;;;;;;;;4423993;32;20209;-88
2022/10/12 09:28:23;;;;;;;32.97;24.10;;;;;;;;;;4422806;32;20297;-89
2022/10/12 09:31:04;;;;;;;35.53;23.23;;;;;;;;;;4423382;32;20265;-88
2022/10/12 09:33:38;;;;;;;27.10;23.70;;;;;;;;;;4423173;32;20300;-89
2022/10/12 09:36:06;;;;;;;36.63;28.52;;;;;;;;;;4423795;32;20292;-89
2022/10/12 09:38:33;;;;;;;88.60;55.03;;;;;;;;;;4423898;32;20229;-89
2022/10/12 09:41:00;;;;;;;31.67;23.27;;;;;;;;;;4425260;32;20201;-90
2022/10/12 09:43:27;;;;;;;33.72;22.90;;;;;;;;;;4424165;32;20243;-89
2022/10/12 09:49:07;;;;;;;24.23;19.15;;;;;;;;;;4382167;32;20260;-89
2022/10/12 09:51:36;;;;;;;23.08;17.73;;;;;;;;;;4425378;32;20297;-88
2022/10/12 09:54:27;;;;;;;21.83;18.37;;;;;;;;;;4423786;32;20233;-89
2022/10/12 10:00:28;;;;;;;24.92;20.10;;;;;;;;;;4421037;32;20716;-89
2022/10/12 10:02:58;;;;;;;23.15;19.50;;;;;;;;;;4423946;32;20347;-89
2022/10/12 10:06:02;;;;;;;21.98;19.75;;;;;;;;;;4423305;32;20225;-89
2022/10/12 10:08:53;;;;;;;27.05;19.40;;;;;;;;;;4363466;32;20263;-89
2022/10/12 10:11:32;;;;;;;22.73;18.83;;;;;;;;;;4423739;32;20232;-89
2022/10/12 10:16:53;;;;;;;23.30;19.87;;;;;;;;;;4422157;32;20210;-90
2022/10/12 10:25:06;;;;;;;26.12;20.58;;;;;;;;;;4407428;32;20276;-89
2022/10/12 10:27:36;;;;;;;24.92;19.42;;;;;;;;;;4408050;32;20201;-90
2022/10/12 10:30:20;;;;;;;20.92;18.50;;;;;;;;;;4407195;32;20286;-88
2022/10/12 10:32:47;;;;;;;27.23;19.37;;;;;;;;;;4408407;32;20568;-90
2022/10/12 10:35:20;;;;;;;22.50;18.50;;;;;;;;;;4409474;32;20239;-89
2022/10/12 10:37:50;;;;;;;25.42;19.70;;;;;;;;;;4410360;32;20256;-89
2022/10/12 10:40:24;;;;;;;25.95;18.52;;;;;;;;;;4411521;32;20625;-89
2022/10/12 10:42:55;;;;;;;21.52;17.52;;;;;;;;;;4410148;32;20233;-89
2022/10/12 10:45:26;;;;;;;23.55;17.20;;;;;;;;;;4407153;32;20408;-88
2022/10/12 10:48:00;;;;;;;23.52;17.98;;;;;;;;;;4393792;32;20232;-88
2022/10/12 10:50:33;;;;;;;26.55;19.35;;;;;;;;;;4407056;32;20271;-90
2022/10/12 10:53:02;;;;;;;26.87;18.48;;;;;;;;;;4407032;32;20229;-89
2022/10/12 10:55:45;;;;;;;24.77;18.75;;;;;;;;;;4407825;32;20240;-90
2022/10/12 10:58:22;;;;;;;20.80;18.12;;;;;;;;;;4407872;32;20650;-87
2022/10/12 11:00:51;;;;;;;19.62;17.33;;;;;;;;;;4407353;32;20583;-89
2022/10/12 11:03:25;;;;;;;26.83;17.83;;;;;;;;;;4408700;32;20273;-90
2022/10/12 11:05:56;;;;;;;24.08;20.20;;;;;;;;;;4407483;32;20562;-87
2022/10/12 11:08:26;;;;;;;25.12;19.17;;;;;;;;;;4408148;32;20228;-89
2022/10/12 11:11:00;;;;;;;19.40;17.37;;;;;;;;;;4406360;32;20626;-88
2022/10/12 11:13:32;;;;;;;20.60;17.55;;;;;;;;;;4407496;32;20648;-88
2022/10/12 11:16:04;;;;;;;24.52;17.90;;;;;;;;;;4406362;32;20252;-89
2022/10/12 11:18:38;;;;;;;27.75;19.23;;;;;;;;;;4407166;32;20213;-88
2022/10/12 11:21:11;;;;;;;20.95;16.00;;;;;;;;;;4406547;32;20240;-89
2022/10/12 11:23:44;;;;;;;21.23;19.00;;;;;;;;;;4406988;32;20217;-89
2022/10/12 11:26:24;;;;;;;27.80;18.33;;;;;;;;;;4406653;32;20247;-89
2022/10/12 11:28:54;;;;;;;31.60;19.25;;;;;;;;;;4407146;32;20247;-89
2022/10/12 11:31:25;;;;;;;25.58;18.00;;;;;;;;;;4409433;32;20278;-89
2022/10/12 11:33:53;;;;;;;21.98;16.75;;;;;;;;;;4410180;32;20214;-90
2022/10/12 11:36:23;;;;;;;26.05;18.65;;;;;;;;;;4409810;32;20309;-88
2022/10/12 11:38:52;;;;;;;23.52;18.20;;;;;;;;;;4409504;32;20198;-90
2022/10/12 11:41:24;;;;;;;32.83;16.42;;;;;;;;;;4409073;32;20713;-89
2022/10/12 11:43:55;;;;;;;19.87;16.20;;;;;;;;;;4409526;32;20273;-89
2022/10/12 11:46:31;;;;;;;20.67;16.70;;;;;;;;;;4409586;32;20231;-88
2022/10/12 11:49:02;;;;;;;22.00;17.98;;;;;;;;;;4409565;32;20217;-86
2022/10/12 11:51:29;;;;;;;26.52;16.30;;;;;;;;;;4410164;32;20217;-89
2022/10/12 11:54:01;;;;;;;21.58;17.33;;;;;;;;;;4409790;32;20329;-88
2022/10/12 11:56:36;;;;;;;18.60;16.15;;;;;;;;;;4409659;32;20312;-89
2022/10/12 11:59:10;;;;;;;20.80;18.40;;;;;;;;;;4410153;32;20213;-88
2022/10/12 12:01:47;;;;;;;17.08;15.40;;;;;;;;;;4409869;32;20715;-88
2022/10/12 12:04:22;;;;;;;21.90;17.70;;;;;;;;;;4409680;32;20205;-89
2022/10/12 12:06:54;;;;;;;19.70;16.67;;;;;;;;;;4410093;32;20227;-88
2022/10/12 12:09:38;;;;;;;22.87;17.08;;;;;;;;;;4409461;32;20259;-88
2022/10/12 12:12:16;;;;;;;21.67;15.18;;;;;;;;;;4408402;32;20301;-89
2022/10/12 12:15:10;;;;;;;19.98;17.02;;;;;;;;;;4409389;32;20233;-89
2022/10/12 12:17:37;;;;;;;26.20;18.58;;;;;;;;;;4409604;32;20268;-88
2022/10/12 12:20:43;;;;;;;21.30;17.83;;;;;;;;;;4409409;32;20221;-89
2022/10/12 12:23:20;;;;;;;28.02;21.65;;;;;;;;;;4409550;32;20197;-89
2022/10/12 12:25:47;;;;;;;21.42;17.55;;;;;;;;;;4408765;32;20288;-89
2022/10/12 12:28:24;;;;;;;26.55;18.67;;;;;;;;;;4409039;32;20269;-89
2022/10/12 12:30:57;;;;;;;24.02;19.23;;;;;;;;;;4408658;32;20221;-89
2022/10/12 12:33:31;;;;;;;20.92;18.73;;;;;;;;;;4408945;32;20740;-88
2022/10/12 12:36:00;;;;;;;22.25;18.35;;;;;;;;;;4408872;32;20296;-88
2022/10/12 12:38:31;;;;;;;26.17;19.73;;;;;;;;;;4408986;32;20291;-88
2022/10/12 12:41:02;;;;;;;21.67;19.42;;;;;;;;;;4395341;32;20606;-88
2022/10/12 12:44:02;;;;;;;25.25;20.00;;;;;;;;;;4408832;32;20231;-89
2022/10/12 12:47:09;;;;;;;27.48;23.17;;;;;;;;;;4408388;32;20655;-89
2022/10/12 12:49:46;;;;;;;24.17;19.02;;;;;;;;;;4408510;32;20316;-88
2022/10/12 12:52:17;;;;;;;31.55;21.67;;;;;;;;;;4408767;32;20238;-89
2022/10/12 12:55:11;;;;;;;30.42;23.40;;;;;;;;;;4408950;32;20588;-88
2022/10/12 12:57:59;;;;;;;25.98;23.17;;;;;;;;;;4408694;32;20273;-89
2022/10/12 13:00:34;;;;;;;26.15;22.75;;;;;;;;;;4408461;32;20230;-88
2022/10/12 13:03:22;;;;;;;27.60;23.50;;;;;;;;;;4408562;32;20592;-89
2022/10/12 13:06:15;;;;;;;25.67;17.98;;;;;;;;;;4408316;32;20233;-89
2022/10/12 13:09:11;;;;;;;23.85;19.67;;;;;;;;;;4408650;32;20218;-90
2022/10/12 13:11:53;;;;;;;28.33;20.12;;;;;;;;;;4403403;32;20237;-89
2022/10/12 13:14:40;;;;;;;28.12;22.77;;;;;;;;;;4408378;32;20205;-88
2022/10/12 13:17:37;;;;;;;35.95;27.98;;;;;;;;;;4408495;32;20267;-88
2022/10/12 13:20:15;;;;;;;26.77;21.85;;;;;;;;;;4408152;32;20217;-88
2022/10/12 13:22:44;;;;;;;30.17;22.10;;;;;;;;;;4408567;32;20251;-90
2022/10/12 13:25:22;;;;;;;24.92;19.20;;;;;;;;;;4408545;32;20226;-89
2022/10/12 13:27:53;;;;;;;22.90;16.45;;;;;;;;;;4409561;32;20632;-89
2022/10/12 13:30:26;;;;;;;19.33;16.83;;;;;;;;;;4408071;32;20221;-89
2022/10/12 13:33:02;;;;;;;17.42;15.52;;;;;;;;;;4408115;32;20246;-89
2022/10/12 13:35:33;;;;;;;27.67;18.30;;;;;;;;;;4408428;32;20226;-88
2022/10/12 13:38:02;;;;;;;19.65;17.08;;;;;;;;;;4412950;32;20231;-90
2022/10/12 13:40:31;;;;;;;29.15;19.12;;;;;;;;;;4411099;32;20676;-89
2022/10/12 13:43:17;;;;;;;25.05;19.23;;;;;;;;;;4409842;32;20228;-90
2022/10/12 13:45:45;;;;;;;24.48;18.90;;;;;;;;;;4409706;32;20312;-88
2022/10/12 13:48:18;;;;;;;26.67;18.92;;;;;;;;;;4408038;32;20609;-89
2022/10/12 13:50:51;;;;;;;23.98;17.62;;;;;;;;;;4407906;32;20535;-89
2022/10/12 13:53:18;;;;;;;28.05;19.15;;;;;;;;;;4407665;32;20520;-89
2022/10/12 13:55:59;;;;;;;26.80;19.92;;;;;;;;;;4407019;32;20233;-89
2022/10/12 13:58:30;;;;;;;28.23;20.65;;;;;;;;;;4407874;32;20225;-89
2022/10/12 14:00:57;;;;;;;25.10;20.52;;;;;;;;;;4407225;32;20281;-88
2022/10/12 14:03:27;;;;;;;22.52;18.60;;;;;;;;;;4407551;32;20574;-89
2022/10/12 14:05:54;;;;;;;29.27;20.55;;;;;;;;;;4407479;32;20672;-88
2022/10/12 14:08:25;;;;;;;24.30;20.45;;;;;;;;;;4407231;32;20562;-90
2022/10/12 14:10:56;;;;;;;31.77;20.15;;;;;;;;;;4393748;32;20256;-89
2022/10/12 14:13:27;;;;;;;20.83;18.65;;;;;;;;;;4407616;32;20209;-89
2022/10/12 14:15:55;;;;;;;30.27;20.30;;;;;;;;;;4407238;32;20221;-90
2022/10/12 14:18:37;;;;;;;28.27;21.08;;;;;;;;;;4407427;32;20258;-89
2022/10/12 14:21:07;;;;;;;24.23;21.65;;;;;;;;;;4408465;32;20235;-90
2022/10/12 14:23:34;;;;;;;34.25;21.15;;;;;;;;;;4406780;32;20540;-90
2022/10/12 14:26:01;;;;;;;23.98;21.10;;;;;;;;;;4407225;32;20214;-90
2022/10/12 14:28:31;;;;;;;24.17;20.52;;;;;;;;;;4407274;32;20304;-90
2022/10/12 14:30:58;;;;;;;25.77;20.10;;;;;;;;;;4407786;32;20668;-89
2022/10/12 14:33:26;;;;;;;23.25;20.77;;;;;;;;;;4406936;32;20726;-89
2022/10/12 14:36:13;;;;;;;27.35;20.37;;;;;;;;;;4407341;32;20214;-88
2022/10/12 14:38:42;;;;;;;40.00;22.05;;;;;;;;;;4407329;32;20225;-89
2022/10/12 14:41:44;;;;;;;28.38;19.40;;;;;;;;;;4407688;32;20214;-89
2022/10/12 14:44:13;;;;;;;28.90;22.23;;;;;;;;;;4345094;33;20285;-89
2022/10/12 14:46:41;;;;;;;30.17;21.52;;;;;;;;;;4345398;33;20235;-89
2022/10/12 14:49:16;;;;;;;28.55;21.70;;;;;;;;;;4374513;32;20304;-89
2022/10/12 14:51:44;;;;;;;37.50;23.55;;;;;;;;;;4414923;27;20699;-89
2022/10/12 14:54:12;;;;;;;36.45;27.52;;;;;;;;;;4422128;32;20503;-90
2022/10/12 14:56:39;;;;;;;38.35;26.55;;;;;;;;;;4422091;32;20252;-90
2022/10/12 14:59:05;;;;;;;34.05;26.12;;;;;;;;;;4422310;32;20724;-89